createdAt,value
2022-08-21T00:00:51.289Z,46.03
2022-08-21T00:03:18.266Z,51.35
2022-08-21T00:05:51.014Z,40.97
2022-08-21T00:08:20.429Z,37.55
2022-08-21T00:10:48.788Z,45.95
2022-08-21T00:13:18.886Z,47.10
2022-08-21T00:15:46.967Z,44.60
2022-08-21T00:18:15.163Z,49.47
2022-08-21T00:20:44.954Z,46.83
2022-08-21T00:23:12.769Z,48.15
2022-08-21T00:25:41.738Z,48.85
2022-08-21T00:28:09.135Z,52.90
2022-08-21T00:30:36.597Z,37.20
2022-08-21T00:33:05.122Z,51.35
2022-08-21T00:35:38.013Z,54.42
2022-08-21T00:38:08.631Z,50.95
2022-08-21T00:40:54.383Z,40.20
2022-08-21T00:43:30.951Z,34.65
2022-08-21T00:45:58.876Z,53.08
2022-08-21T00:48:27.168Z,42.33
2022-08-21T00:51:16.280Z,56.00
2022-08-21T00:53:51.721Z,53.00
2022-08-21T00:56:23.990Z,70.45
2022-08-21T00:58:56.524Z,64.15
2022-08-21T01:01:23.502Z,65.13
2022-08-21T01:03:50.855Z,52.25
2022-08-21T01:06:19.016Z,65.22
2022-08-21T01:08:47.068Z,65.90
2022-08-21T01:11:16.538Z,71.22
2022-08-21T01:13:47.385Z,70.85
2022-08-21T01:16:19.669Z,61.80
2022-08-21T01:18:48.630Z,57.78
2022-08-21T01:21:28.333Z,58.13
2022-08-21T01:23:57.846Z,65.30
2022-08-21T01:26:34.249Z,58.65
2022-08-21T01:29:32.995Z,46.22
2022-08-21T01:32:05.822Z,46.08
2022-08-21T01:34:37.131Z,39.20
2022-08-21T01:37:04.252Z,37.10
2022-08-21T01:39:31.331Z,37.08
2022-08-21T01:41:58.165Z,34.53
2022-08-21T01:44:25.956Z,35.58
2022-08-21T01:46:54.254Z,32.63
2022-08-21T01:49:21.272Z,36.60
2022-08-21T01:51:48.368Z,27.17
2022-08-21T01:54:15.216Z,28.77
2022-08-21T01:56:47.665Z,32.78
2022-08-21T01:59:14.877Z,26.42
2022-08-21T02:01:42.167Z,34.15
2022-08-21T02:04:10.961Z,28.95
2022-08-21T02:06:38.595Z,31.23
2022-08-21T02:09:10.319Z,29.33
2022-08-21T02:11:41.301Z,20.25
2022-08-21T02:14:14.887Z,24.67
2022-08-21T02:16:45.195Z,25.98
2022-08-21T02:19:15.039Z,24.73
2022-08-21T02:21:42.874Z,21.15
2022-08-21T02:24:12.238Z,23.02
2022-08-21T02:26:39.626Z,25.98
2022-08-21T02:29:06.615Z,24.10
2022-08-21T02:31:33.703Z,22.20
2022-08-21T02:34:00.757Z,21.38
2022-08-21T02:36:29.127Z,25.00
2022-08-21T02:38:56.853Z,29.50
2022-08-21T02:41:24.594Z,21.63
2022-08-21T02:43:51.829Z,21.90
2022-08-21T02:46:22.024Z,23.73
2022-08-21T02:48:49.062Z,21.90
2022-08-21T02:51:20.630Z,24.33
2022-08-21T02:53:49.229Z,19.75
2022-08-21T02:56:19.389Z,17.27
2022-08-21T02:58:52.318Z,20.17
2022-08-21T03:01:20.558Z,16.98
2022-08-21T03:03:52.348Z,18.48
2022-08-21T03:06:23.807Z,18.80
2022-08-21T03:08:51.868Z,19.60
2022-08-21T03:11:20.989Z,15.80
2022-08-21T03:13:47.957Z,19.75
2022-08-21T03:16:15.774Z,19.58
2022-08-21T03:18:42.762Z,22.10
2022-08-21T03:21:09.623Z,17.80
2022-08-21T03:23:36.555Z,19.58
2022-08-21T03:26:04.876Z,19.83
2022-08-21T03:28:31.861Z,20.20
2022-08-21T03:30:59.095Z,29.05
2022-08-21T03:33:26.015Z,25.27
2022-08-21T03:36:05.962Z,31.50
2022-08-21T03:38:35.450Z,35.03
2022-08-21T03:41:04.595Z,25.23
2022-08-21T03:43:33.230Z,27.40
2022-08-21T03:46:06.106Z,19.13
2022-08-21T03:48:36.245Z,23.50
2022-08-21T03:51:04.025Z,24.77
2022-08-21T03:53:31.269Z,24.05
2022-08-21T03:55:58.602Z,22.73
2022-08-21T03:58:28.372Z,23.63
2022-08-21T04:00:58.778Z,20.85
2022-08-21T04:03:28.000Z,18.90
2022-08-21T04:05:54.827Z,18.17
2022-08-21T04:08:21.881Z,22.38
2022-08-21T04:10:53.212Z,18.67
2022-08-21T04:13:21.190Z,21.40
2022-08-21T04:15:48.961Z,25.33
2022-08-21T04:18:16.219Z,22.13
2022-08-21T04:20:50.187Z,23.63
2022-08-21T04:23:23.702Z,22.08
2022-08-21T04:25:56.790Z,21.08
2022-08-21T04:28:28.843Z,22.75
2022-08-21T04:30:56.852Z,18.25
2022-08-21T04:33:23.722Z,18.92
2022-08-21T04:35:51.484Z,21.00
2022-08-21T04:38:19.663Z,19.23
2022-08-21T04:40:46.826Z,20.55
2022-08-21T04:43:13.933Z,20.35
2022-08-21T04:45:48.673Z,20.45
2022-08-21T04:48:23.106Z,21.25
2022-08-21T04:51:06.857Z,27.00
2022-08-21T04:53:40.528Z,27.27
2022-08-21T04:56:13.951Z,23.15
2022-08-21T04:58:42.718Z,20.40
2022-08-21T05:01:18.196Z,19.00
2022-08-21T05:03:47.844Z,15.05
2022-08-21T05:06:16.637Z,17.50
2022-08-21T05:08:48.011Z,17.60
2022-08-21T05:11:15.252Z,19.13
2022-08-21T05:13:42.982Z,17.10
2022-08-21T05:16:10.298Z,19.02
2022-08-21T05:18:37.187Z,20.35
2022-08-21T05:21:04.380Z,23.08
2022-08-21T05:23:31.476Z,18.20
2022-08-21T05:25:59.231Z,17.00
2022-08-21T05:28:27.097Z,17.55
2022-08-21T05:30:54.457Z,19.05
2022-08-21T05:33:21.327Z,18.95
2022-08-21T05:35:52.940Z,20.67
2022-08-21T05:38:20.350Z,24.38
2022-08-21T05:40:47.921Z,20.15
2022-08-21T05:43:16.033Z,23.42
2022-08-21T05:45:44.486Z,19.80
2022-08-21T05:48:19.387Z,21.30
2022-08-21T05:50:50.109Z,23.60
2022-08-21T05:53:19.685Z,21.67
2022-08-21T05:55:48.059Z,21.17
2022-08-21T05:58:20.098Z,23.30
2022-08-21T06:00:49.193Z,26.75
2022-08-21T06:03:27.812Z,22.33
2022-08-21T06:05:56.611Z,25.77
2022-08-21T06:08:24.769Z,23.98
2022-08-21T06:10:54.214Z,28.08
2022-08-21T06:13:22.970Z,25.05
2022-08-21T06:16:00.974Z,24.15
2022-08-21T06:18:27.809Z,23.85
2022-08-21T06:20:54.612Z,23.70
2022-08-21T06:23:21.436Z,24.27
2022-08-21T06:26:01.180Z,27.48
2022-08-21T06:28:28.463Z,27.63
2022-08-21T06:30:55.803Z,28.85
2022-08-21T06:33:22.810Z,25.67
2022-08-21T06:35:49.741Z,31.23
2022-08-21T06:38:16.644Z,28.67
2022-08-21T06:40:47.012Z,25.23
2022-08-21T06:43:18.141Z,35.42
2022-08-21T06:45:45.677Z,31.30
2022-08-21T06:48:18.376Z,25.05
2022-08-21T06:50:47.040Z,24.48
2022-08-21T06:53:19.146Z,25.45
2022-08-21T06:55:47.166Z,22.73
2022-08-21T06:58:14.888Z,23.77
2022-08-21T07:00:45.425Z,21.92
2022-08-21T07:03:40.781Z,22.40
2022-08-21T07:06:11.539Z,19.40
2022-08-21T07:08:39.451Z,20.58
2022-08-21T07:11:17.898Z,21.17
2022-08-21T07:13:45.128Z,22.23
2022-08-21T07:16:13.020Z,20.98
2022-08-21T07:18:39.980Z,21.33
2022-08-21T07:21:08.819Z,24.90
2022-08-21T07:23:42.894Z,21.00
2022-08-21T07:28:37.680Z,19.45
2022-08-21T07:31:05.842Z,20.83
2022-08-21T07:33:35.288Z,18.80
2022-08-21T07:36:02.836Z,17.33
2022-08-21T07:38:29.796Z,22.23
2022-08-21T07:41:00.188Z,19.45
2022-08-21T07:43:27.657Z,20.70
2022-08-21T07:45:58.094Z,19.13
2022-08-21T07:48:25.548Z,19.67
2022-08-21T07:50:52.443Z,17.30
2022-08-21T07:53:19.318Z,16.15
2022-08-21T07:55:46.175Z,17.88
2022-08-21T07:58:13.616Z,15.82
2022-08-21T08:00:41.437Z,16.60
2022-08-21T08:03:08.339Z,15.90
2022-08-21T08:05:38.071Z,15.35
2022-08-21T08:08:04.937Z,14.88
2022-08-21T08:10:31.958Z,14.73
2022-08-21T08:12:59.086Z,13.98
2022-08-21T08:15:28.456Z,14.60
2022-08-21T08:17:58.018Z,15.07
2022-08-21T08:20:27.646Z,18.10
2022-08-21T08:22:55.787Z,12.73
2022-08-21T08:25:24.980Z,12.82
2022-08-21T08:27:51.951Z,12.85
2022-08-21T08:30:22.702Z,12.23
2022-08-21T08:32:50.428Z,13.45
2022-08-21T08:35:18.393Z,14.35
2022-08-21T08:37:52.376Z,14.15
2022-08-21T08:40:43.181Z,14.30
2022-08-21T08:43:14.565Z,12.50
2022-08-21T08:45:48.839Z,12.70
2022-08-21T08:48:37.269Z,13.95
2022-08-21T08:51:11.927Z,13.15
2022-08-21T08:53:58.326Z,11.35
2022-08-21T08:56:33.358Z,12.85
2022-08-21T08:59:20.214Z,10.80
2022-08-21T09:01:47.757Z,12.68
2022-08-21T09:04:25.029Z,9.63
2022-08-21T09:07:09.273Z,10.98
2022-08-21T09:10:40.201Z,15.25
2022-08-21T09:13:28.407Z,10.63
2022-08-21T09:16:10.393Z,10.00
2022-08-21T09:19:16.290Z,9.02
2022-08-21T09:22:25.010Z,9.38
2022-08-21T09:25:20.867Z,8.10
2022-08-21T09:27:50.903Z,10.25
2022-08-21T09:30:24.468Z,8.60
2022-08-21T09:32:51.314Z,6.93
2022-08-21T09:35:22.964Z,11.63
2022-08-21T09:37:54.805Z,7.97
2022-08-21T09:40:36.872Z,7.70
2022-08-21T09:43:13.166Z,6.43
2022-08-21T09:45:43.093Z,8.35
2022-08-21T09:48:32.746Z,5.90
2022-08-21T09:51:15.179Z,5.72
2022-08-21T09:53:50.807Z,6.35
2022-08-21T09:56:49.036Z,5.40
2022-08-21T09:59:37.276Z,6.05
2022-08-21T10:02:36.859Z,5.40
2022-08-21T10:05:17.372Z,5.05
2022-08-21T10:07:44.507Z,8.57
2022-08-21T10:10:33.258Z,5.68
2022-08-21T10:13:15.292Z,5.55
2022-08-21T10:15:52.266Z,7.65
2022-08-21T10:18:33.488Z,5.25
2022-08-21T10:21:18.509Z,5.93
2022-08-21T10:24:12.443Z,5.30
2022-08-21T10:27:14.678Z,7.00
2022-08-21T10:30:21.771Z,7.55
2022-08-21T10:33:35.016Z,5.80
2022-08-21T10:36:32.390Z,5.60
2022-08-21T10:42:30.896Z,7.15
2022-08-21T10:45:12.406Z,3.75
2022-08-21T10:47:58.488Z,6.05
2022-08-21T10:50:55.334Z,8.30
2022-08-21T10:53:38.273Z,5.60
2022-08-21T10:56:26.100Z,5.65
2022-08-21T10:59:48.175Z,5.07
2022-08-21T11:02:37.793Z,6.38
2022-08-21T11:05:45.563Z,5.82
2022-08-21T11:08:38.997Z,5.85
2022-08-21T11:11:22.124Z,4.50
2022-08-21T11:14:11.552Z,4.45
2022-08-21T11:16:48.830Z,4.03
2022-08-21T11:19:41.744Z,4.57
2022-08-21T11:22:51.367Z,8.48
2022-08-21T11:25:33.770Z,4.32
2022-08-21T11:28:34.069Z,4.20
2022-08-21T11:31:18.399Z,6.70
2022-08-21T11:33:57.186Z,7.00
2022-08-21T11:37:02.167Z,5.05
2022-08-21T11:40:00.919Z,8.00
2022-08-21T11:42:49.301Z,4.07
2022-08-21T11:45:48.077Z,5.55
2022-08-21T11:48:43.136Z,3.95
2022-08-21T11:54:26.875Z,5.32
2022-08-21T11:57:22.392Z,4.95
2022-08-21T12:00:11.276Z,5.40
2022-08-21T12:02:51.469Z,5.03
2022-08-21T12:05:56.122Z,4.28
2022-08-21T12:08:36.121Z,5.87
2022-08-21T12:11:15.220Z,4.07
2022-08-21T12:14:07.810Z,2.65
2022-08-21T12:16:38.566Z,3.45
2022-08-21T12:19:20.728Z,9.38
2022-08-21T12:21:55.686Z,4.63
2022-08-21T12:24:28.570Z,5.25
2022-08-21T12:27:14.423Z,3.28
2022-08-21T12:29:52.705Z,6.22
2022-08-21T12:32:26.490Z,3.28
2022-08-21T12:35:23.257Z,6.25
2022-08-21T12:38:19.608Z,9.15
2022-08-21T12:41:11.373Z,2.35
2022-08-21T12:43:49.877Z,5.07
2022-08-21T12:46:37.674Z,2.45
2022-08-21T12:49:17.758Z,6.00
2022-08-21T12:51:57.056Z,7.28
2022-08-21T12:54:32.320Z,6.45
2022-08-21T12:57:07.041Z,5.95
2022-08-21T12:59:39.517Z,4.75
2022-08-21T13:02:22.299Z,5.13
2022-08-21T13:04:51.080Z,6.75
2022-08-21T13:07:28.360Z,5.55
2022-08-21T13:10:17.465Z,4.63
2022-08-21T13:12:46.143Z,3.75
2022-08-21T13:15:14.363Z,5.97
2022-08-21T13:17:49.496Z,4.75
2022-08-21T13:22:53.171Z,3.58
2022-08-21T13:25:26.633Z,5.50
2022-08-21T13:28:07.221Z,6.93
2022-08-21T13:30:35.582Z,2.35
2022-08-21T13:33:12.304Z,7.78
2022-08-21T13:36:12.387Z,2.83
2022-08-21T13:38:43.064Z,4.70
2022-08-21T13:41:29.567Z,2.83
2022-08-21T13:44:07.758Z,3.78
2022-08-21T13:46:37.709Z,5.75
2022-08-21T13:49:08.399Z,2.50
2022-08-21T13:51:37.208Z,3.30
2022-08-21T13:54:28.421Z,5.93
2022-08-21T13:56:56.277Z,4.20
2022-08-21T13:59:41.530Z,4.80
2022-08-21T14:02:25.021Z,3.42
2022-08-21T14:05:18.302Z,3.63
2022-08-21T14:07:46.117Z,5.97
2022-08-21T14:10:22.265Z,5.95
2022-08-21T14:12:58.116Z,4.25
2022-08-21T14:15:32.507Z,3.70
2022-08-21T14:18:18.156Z,5.93
2022-08-21T14:20:46.603Z,3.63
2022-08-21T14:23:25.641Z,4.05
2022-08-21T14:25:53.894Z,3.55
2022-08-21T14:28:28.141Z,2.88
2022-08-21T14:30:57.649Z,3.97
2022-08-21T14:33:29.481Z,4.47
2022-08-21T14:35:59.504Z,4.70
2022-08-21T14:38:29.099Z,3.67
2022-08-21T14:41:08.941Z,2.42
2022-08-21T14:43:35.838Z,3.20
2022-08-21T14:46:02.700Z,4.57
2022-08-21T14:48:29.543Z,4.25
2022-08-21T14:51:05.493Z,3.55
2022-08-21T14:53:35.637Z,4.75
2022-08-21T14:56:06.364Z,5.75
2022-08-21T14:58:38.058Z,5.85
2022-08-21T15:01:09.413Z,4.10
2022-08-21T15:03:37.503Z,3.50
2022-08-21T15:06:06.963Z,3.38
2022-08-21T15:08:34.513Z,6.00
2022-08-21T15:11:13.609Z,3.00
2022-08-21T15:13:42.713Z,4.55
2022-08-21T15:16:12.343Z,2.00
2022-08-21T15:18:40.213Z,3.20
2022-08-21T15:21:07.190Z,5.13
2022-08-21T15:23:34.106Z,4.47
2022-08-21T15:26:01.074Z,3.40
2022-08-21T15:28:31.789Z,1.77
2022-08-21T15:31:02.003Z,4.13
2022-08-21T15:33:29.526Z,4.53
2022-08-21T15:35:56.440Z,2.10
2022-08-21T15:38:23.858Z,4.75
2022-08-21T15:40:52.338Z,4.90
2022-08-21T15:43:30.796Z,3.42
2022-08-21T15:46:00.891Z,4.53
2022-08-21T15:48:28.734Z,3.70
2022-08-21T15:50:56.054Z,4.45
2022-08-21T15:53:23.174Z,3.17
2022-08-21T15:55:50.115Z,4.60
2022-08-21T15:58:20.254Z,4.32
2022-08-21T16:00:47.965Z,4.45
2022-08-21T16:03:20.668Z,3.05
2022-08-21T16:05:53.801Z,5.88
2022-08-21T16:08:21.969Z,5.10
2022-08-21T16:10:49.624Z,2.25
2022-08-21T16:13:35.171Z,4.60
2022-08-21T16:16:02.601Z,4.72
2022-08-21T16:18:29.589Z,3.15
2022-08-21T16:20:56.446Z,6.55
2022-08-21T16:23:23.338Z,5.95
2022-08-21T16:25:51.210Z,2.35
2022-08-21T16:28:21.081Z,4.80
2022-08-21T16:30:50.973Z,2.03
2022-08-21T16:33:44.491Z,3.22
2022-08-21T16:36:13.170Z,3.20
2022-08-21T16:38:41.822Z,5.80
2022-08-21T16:41:13.475Z,3.90
2022-08-21T16:43:43.143Z,4.30
2022-08-21T16:46:14.062Z,4.15
2022-08-21T16:48:44.938Z,3.40
2022-08-21T16:51:16.219Z,3.72
2022-08-21T16:53:43.785Z,3.67
2022-08-21T16:56:14.830Z,6.47
2022-08-21T16:58:48.030Z,5.05
2022-08-21T17:01:20.458Z,5.65
2022-08-21T17:03:51.167Z,2.55
2022-08-21T17:06:20.645Z,2.40
2022-08-21T17:08:52.592Z,3.72
2022-08-21T17:11:36.719Z,3.25
2022-08-21T17:14:22.020Z,4.50
2022-08-21T17:16:54.364Z,4.88
2022-08-21T17:19:22.627Z,4.70
2022-08-21T17:21:50.017Z,2.22
2022-08-21T17:24:17.090Z,6.45
2022-08-21T17:26:45.341Z,4.20
2022-08-21T17:29:15.925Z,4.10
2022-08-21T17:31:44.729Z,4.95
2022-08-21T17:34:12.806Z,4.50
2022-08-21T17:36:39.697Z,4.13
2022-08-21T17:39:07.149Z,4.72
2022-08-21T17:41:34.456Z,8.23
2022-08-21T17:44:09.414Z,2.75
2022-08-21T17:46:41.393Z,4.15
2022-08-21T17:49:09.063Z,6.40
2022-08-21T17:51:36.022Z,5.13
2022-08-21T17:54:02.934Z,2.65
2022-08-21T17:56:34.484Z,2.78
2022-08-21T17:59:05.677Z,3.53
2022-08-21T18:01:43.696Z,3.33
2022-08-21T18:04:11.868Z,2.80
2022-08-21T18:06:40.051Z,4.15
2022-08-21T18:09:08.384Z,4.72
2022-08-21T18:11:37.402Z,3.88
2022-08-21T18:14:07.812Z,3.97
2022-08-21T18:16:37.524Z,2.95
2022-08-21T18:19:15.271Z,2.90
2022-08-21T18:21:42.248Z,4.88
2022-08-21T18:24:09.094Z,4.28
2022-08-21T18:26:40.561Z,6.07
2022-08-21T18:29:14.512Z,4.95
2022-08-21T18:31:43.689Z,4.07
2022-08-21T18:34:37.531Z,6.63
2022-08-21T18:37:04.806Z,4.07
2022-08-21T18:39:36.718Z,8.73
2022-08-21T18:42:12.272Z,4.10
2022-08-21T18:44:42.610Z,4.32
2022-08-21T18:47:22.642Z,3.17
2022-08-21T18:49:50.196Z,4.13
2022-08-21T18:52:20.455Z,4.15
2022-08-21T18:54:49.610Z,3.90
2022-08-21T18:57:18.430Z,4.53
2022-08-21T18:59:45.373Z,4.00
2022-08-21T19:02:12.403Z,5.32
2022-08-21T19:04:44.793Z,4.10
2022-08-21T19:07:14.444Z,4.03
2022-08-21T19:12:32.027Z,7.10
2022-08-21T19:15:00.806Z,7.32
2022-08-21T19:17:28.521Z,2.40
2022-08-21T19:20:14.816Z,5.53
2022-08-21T19:22:53.529Z,5.50
2022-08-21T19:25:33.858Z,8.18
2022-08-21T19:28:10.980Z,5.28
2022-08-21T19:31:02.015Z,4.75
2022-08-21T19:33:37.471Z,5.90
2022-08-21T19:36:09.161Z,4.13
2022-08-21T19:38:37.931Z,5.97
2022-08-21T19:41:09.064Z,5.78
2022-08-21T19:43:49.719Z,5.20
2022-08-21T19:46:24.337Z,5.18
2022-08-21T19:48:53.515Z,4.43
2022-08-21T19:51:21.340Z,6.13
2022-08-21T19:53:52.581Z,7.07
2022-08-21T19:56:30.530Z,4.70
2022-08-21T19:58:58.480Z,4.82
2022-08-21T20:01:27.624Z,6.28
2022-08-21T20:03:57.110Z,3.33
2022-08-21T20:06:25.645Z,4.15
2022-08-21T20:08:55.213Z,3.45
2022-08-21T20:11:42.675Z,5.65
2022-08-21T20:14:12.858Z,7.07
2022-08-21T20:16:41.646Z,3.58
2022-08-21T20:19:09.846Z,6.13
2022-08-21T20:21:44.168Z,3.92
2022-08-21T20:24:15.133Z,5.65
2022-08-21T20:26:49.462Z,4.15
2022-08-21T20:29:39.134Z,4.72
2022-08-21T20:32:12.409Z,3.45
2022-08-21T20:34:40.965Z,5.50
2022-08-21T20:37:09.126Z,5.22
2022-08-21T20:39:36.986Z,9.18
2022-08-21T20:42:07.030Z,3.88
2022-08-21T20:44:36.180Z,5.70
2022-08-21T20:47:08.964Z,4.55
2022-08-21T20:49:59.463Z,7.53
2022-08-21T20:52:27.691Z,5.95
2022-08-21T20:55:03.760Z,5.43
2022-08-21T20:58:09.140Z,4.43
2022-08-21T21:00:45.718Z,5.95
2022-08-21T21:03:42.223Z,3.50
2022-08-21T21:06:21.012Z,3.85
2022-08-21T21:09:01.237Z,5.78
2022-08-21T21:11:52.571Z,4.97
2022-08-21T21:14:44.951Z,5.85
2022-08-21T21:17:30.168Z,6.72
2022-08-21T21:20:12.055Z,3.90
2022-08-21T21:22:47.361Z,6.15
2022-08-21T21:25:39.969Z,6.00
2022-08-21T21:28:17.960Z,4.90
2022-08-21T21:30:52.032Z,4.30
2022-08-21T21:33:25.682Z,5.68
2022-08-21T21:36:28.462Z,6.88
2022-08-21T21:39:42.634Z,5.25
2022-08-21T21:42:52.119Z,5.10
2022-08-21T21:45:35.450Z,5.95
2022-08-21T21:48:29.555Z,6.05
2022-08-21T21:51:13.715Z,6.47
2022-08-21T21:54:18.385Z,6.18
2022-08-21T21:57:19.997Z,7.32
2022-08-21T22:00:20.199Z,4.93
2022-08-21T22:03:07.876Z,4.65
2022-08-21T22:05:56.097Z,5.03
2022-08-21T22:08:58.217Z,4.30
2022-08-21T22:12:14.665Z,7.03
2022-08-21T22:14:43.942Z,5.85
2022-08-21T22:17:52.944Z,4.93
2022-08-21T22:20:38.353Z,5.18
2022-08-21T22:23:12.677Z,8.70
2022-08-21T22:25:48.940Z,5.65
2022-08-21T22:31:30.278Z,3.85
2022-08-21T22:34:17.902Z,4.90
2022-08-21T22:37:02.713Z,4.22
2022-08-21T22:39:41.929Z,5.47
2022-08-21T22:42:29.213Z,5.13
2022-08-21T22:45:01.222Z,4.43
2022-08-21T22:47:48.146Z,6.72
2022-08-21T22:50:26.272Z,11.13
2022-08-21T22:53:00.436Z,8.43
2022-08-21T22:55:45.816Z,7.75
2022-08-21T22:58:22.391Z,5.50
2022-08-21T23:01:00.153Z,7.22
2022-08-21T23:03:42.170Z,6.18
2022-08-21T23:06:31.605Z,5.30
2022-08-21T23:09:00.274Z,9.40
2022-08-21T23:11:50.878Z,5.60
2022-08-21T23:14:18.586Z,5.63
2022-08-21T23:17:05.143Z,5.75
2022-08-21T23:20:05.247Z,5.47
2022-08-21T23:23:06.694Z,7.30
2022-08-21T23:26:04.203Z,6.05
2022-08-21T23:28:57.696Z,5.13
2022-08-21T23:31:32.508Z,6.10
2022-08-21T23:37:49.850Z,6.63
2022-08-21T23:40:19.010Z,5.65
2022-08-21T23:43:15.943Z,6.70
2022-08-21T23:46:33.443Z,5.97
2022-08-21T23:49:26.699Z,5.30
2022-08-21T23:52:27.210Z,7.50
2022-08-21T23:55:34.477Z,4.22
2022-08-21T23:58:09.958Z,5.70
